createdAt,value
2022-12-23T00:00:12.815Z,0.70
2022-12-23T00:02:40.212Z,0.80
2022-12-23T00:05:08.133Z,0.80
2022-12-23T00:07:35.423Z,0.90
2022-12-23T00:10:02.716Z,1.00
2022-12-23T00:12:48.170Z,1.00
2022-12-23T00:15:15.346Z,1.20
2022-12-23T00:17:44.459Z,1.30
2022-12-23T00:20:14.695Z,1.30
2022-12-23T00:23:00.453Z,1.40
2022-12-23T00:25:44.638Z,1.40
2022-12-23T00:28:24.001Z,1.30
2022-12-23T00:31:03.330Z,1.30
2022-12-23T00:33:33.325Z,1.70
2022-12-23T00:36:01.238Z,1.50
2022-12-23T00:38:47.329Z,1.30
2022-12-23T00:41:36.197Z,1.20
2022-12-23T00:44:04.944Z,1.10
2022-12-23T00:46:32.529Z,1.20
2022-12-23T00:49:18.441Z,1.30
2022-12-23T00:51:45.703Z,1.40
2022-12-23T00:54:12.956Z,1.50
2022-12-23T00:56:40.086Z,1.70
2022-12-23T00:59:07.377Z,1.80
2022-12-23T01:01:53.406Z,1.60
2022-12-23T01:04:39.658Z,1.30
2022-12-23T01:07:07.205Z,1.10
2022-12-23T01:09:34.750Z,0.90
2022-12-23T01:12:02.046Z,0.90
2022-12-23T01:14:29.430Z,0.80
2022-12-23T01:16:56.643Z,0.90
2022-12-23T01:19:23.856Z,0.80
2022-12-23T01:21:51.042Z,0.80
2022-12-23T01:24:18.174Z,0.90
2022-12-23T01:26:45.324Z,1.60
2022-12-23T01:29:12.442Z,1.50
2022-12-23T01:31:39.808Z,1.10
2022-12-23T01:34:06.999Z,1.00
2022-12-23T01:36:34.165Z,1.00
2022-12-23T01:39:01.310Z,0.90
2022-12-23T01:41:49.511Z,0.80
2022-12-23T01:44:50.901Z,0.70
2022-12-23T01:47:33.313Z,0.70
2022-12-23T01:50:28.066Z,0.70
2022-12-23T01:53:16.293Z,0.90
2022-12-23T01:56:13.199Z,0.90
2022-12-23T01:58:49.362Z,0.80
2022-12-23T02:01:35.419Z,0.80
2022-12-23T02:04:09.737Z,0.80
2022-12-23T02:06:58.822Z,0.70
2022-12-23T02:09:30.168Z,0.60
2022-12-23T02:12:03.092Z,0.50
2022-12-23T02:15:04.274Z,0.60
2022-12-23T02:18:03.181Z,0.60
2022-12-23T02:20:33.345Z,0.90
2022-12-23T02:23:18.998Z,1.00
2022-12-23T02:26:03.997Z,1.10
2022-12-23T02:29:08.669Z,1.20
2022-12-23T02:31:42.793Z,1.20
2022-12-23T02:34:19.978Z,1.30
2022-12-23T02:36:53.915Z,1.30
2022-12-23T02:40:01.487Z,1.50
2022-12-23T02:42:34.004Z,1.60
2022-12-23T02:45:07.723Z,1.60
2022-12-23T02:47:46.685Z,1.60
2022-12-23T02:50:27.387Z,1.60
2022-12-23T02:53:01.556Z,1.30
2022-12-23T02:55:33.516Z,1.20
2022-12-23T02:58:06.216Z,1.30
2022-12-23T03:00:34.845Z,1.00
2022-12-23T03:03:02.044Z,0.80
2022-12-23T03:05:44.143Z,0.90
2022-12-23T03:08:22.599Z,1.00
2022-12-23T03:11:02.442Z,1.00
2022-12-23T03:13:52.521Z,1.10
2022-12-23T03:16:53.453Z,1.20
2022-12-23T03:20:01.585Z,1.40
2022-12-23T03:23:12.249Z,1.50
2022-12-23T03:26:23.615Z,1.60
2022-12-23T03:29:11.998Z,1.50
2022-12-23T03:31:41.180Z,1.70
2022-12-23T03:34:16.427Z,1.60
2022-12-23T03:36:50.168Z,1.40
2022-12-23T03:39:20.599Z,1.30
2022-12-23T03:41:57.144Z,1.20
2022-12-23T03:44:32.742Z,1.30
2022-12-23T03:47:47.289Z,1.30
2022-12-23T03:50:17.449Z,1.40
2022-12-23T03:52:55.034Z,1.50
2022-12-23T03:55:33.370Z,1.60
2022-12-23T03:58:17.465Z,1.70
2022-12-23T04:00:55.946Z,1.70
2022-12-23T04:03:41.104Z,1.70
2022-12-23T04:06:14.464Z,1.90
2022-12-23T04:08:43.795Z,1.90
2022-12-23T04:11:12.455Z,1.70
2022-12-23T04:13:40.092Z,1.70
2022-12-23T04:16:07.866Z,1.70
2022-12-23T04:18:35.114Z,1.80
2022-12-23T04:21:02.272Z,1.80
2022-12-23T04:23:29.383Z,1.80
2022-12-23T04:25:56.547Z,1.80
2022-12-23T04:28:23.696Z,1.80
2022-12-23T04:30:50.801Z,2.00
2022-12-23T04:33:17.937Z,2.20
2022-12-23T04:35:45.057Z,2.40
2022-12-23T04:38:12.179Z,2.80
2022-12-23T04:40:39.313Z,3.20
2022-12-23T04:43:06.489Z,3.40
2022-12-23T04:45:33.682Z,3.40
2022-12-23T04:48:00.895Z,3.30
2022-12-23T04:50:28.048Z,3.30
2022-12-23T04:52:55.214Z,3.40
2022-12-23T04:55:22.582Z,3.20
2022-12-23T04:57:49.703Z,3.50
2022-12-23T05:00:17.279Z,3.40
2022-12-23T05:02:44.626Z,3.40
2022-12-23T05:05:11.919Z,3.50
2022-12-23T05:07:39.065Z,3.60
2022-12-23T05:10:06.810Z,3.60
2022-12-23T05:12:33.967Z,3.50
2022-12-23T05:15:01.408Z,3.40
2022-12-23T05:17:28.610Z,3.40
2022-12-23T05:19:55.729Z,3.40
2022-12-23T05:22:22.893Z,3.30
2022-12-23T05:24:50.074Z,3.30
2022-12-23T05:27:17.210Z,3.30
2022-12-23T05:29:44.533Z,3.30
2022-12-23T05:32:11.912Z,3.20
2022-12-23T05:34:39.157Z,3.20
2022-12-23T05:37:06.745Z,3.10
2022-12-23T05:39:33.874Z,3.00
2022-12-23T05:42:01.036Z,3.10
2022-12-23T05:44:28.161Z,3.00
2022-12-23T05:46:55.372Z,2.80
2022-12-23T05:49:22.797Z,2.70
2022-12-23T05:51:49.969Z,2.50
2022-12-23T05:54:17.129Z,2.40
2022-12-23T05:56:44.291Z,2.50
2022-12-23T05:59:11.396Z,2.50
2022-12-23T06:01:38.781Z,2.50
2022-12-23T06:04:06.157Z,2.70
2022-12-23T06:06:33.445Z,3.10
2022-12-23T06:09:00.655Z,3.20
2022-12-23T06:11:28.358Z,3.20
2022-12-23T06:13:55.607Z,3.10
2022-12-23T06:16:22.980Z,2.90
2022-12-23T06:18:53.778Z,3.00
2022-12-23T06:21:21.000Z,3.00
2022-12-23T06:23:48.231Z,3.00
2022-12-23T06:26:15.441Z,2.80
2022-12-23T06:28:42.677Z,2.70
2022-12-23T06:31:09.912Z,2.70
2022-12-23T06:33:37.027Z,2.60
2022-12-23T06:36:04.883Z,2.50
2022-12-23T06:38:32.028Z,2.50
2022-12-23T06:40:59.259Z,2.90
2022-12-23T06:43:26.426Z,3.30
2022-12-23T06:45:53.662Z,3.70
2022-12-23T06:48:20.853Z,3.90
2022-12-23T06:50:48.043Z,3.90
2022-12-23T06:53:15.189Z,3.40
2022-12-23T06:55:42.403Z,3.20
2022-12-23T06:58:09.570Z,3.00
2022-12-23T07:00:36.777Z,2.90
2022-12-23T07:03:04.135Z,3.20
2022-12-23T07:05:36.956Z,3.20
2022-12-23T07:08:05.068Z,3.00
2022-12-23T07:10:32.249Z,2.90
2022-12-23T07:12:59.382Z,2.80
2022-12-23T07:15:26.501Z,2.80
2022-12-23T07:17:54.918Z,2.60
2022-12-23T07:20:22.064Z,2.50
2022-12-23T07:22:50.354Z,2.50
2022-12-23T07:25:17.457Z,2.80
2022-12-23T07:27:44.777Z,2.90
2022-12-23T07:30:12.182Z,2.90
2022-12-23T07:32:39.645Z,2.70
2022-12-23T07:35:07.182Z,2.70
2022-12-23T07:37:34.416Z,3.00
2022-12-23T07:40:08.045Z,2.90
2022-12-23T07:42:46.265Z,2.70
2022-12-23T07:45:13.897Z,2.70
2022-12-23T07:47:41.146Z,2.80
2022-12-23T07:50:08.907Z,2.70
2022-12-23T07:52:36.044Z,2.90
2022-12-23T07:55:03.234Z,3.10
2022-12-23T07:57:30.466Z,3.10
2022-12-23T07:59:58.135Z,3.30
2022-12-23T08:02:25.799Z,3.30
2022-12-23T08:04:53.125Z,3.30
2022-12-23T08:07:20.298Z,3.20
2022-12-23T08:09:47.436Z,3.30
2022-12-23T08:12:14.731Z,4.00
2022-12-23T08:14:41.947Z,4.20
2022-12-23T08:17:09.361Z,4.30
2022-12-23T08:19:36.602Z,4.50
2022-12-23T08:22:03.992Z,4.40
2022-12-23T08:24:31.117Z,4.30
2022-12-23T08:26:58.431Z,4.30
2022-12-23T08:29:26.599Z,4.50
2022-12-23T08:31:56.187Z,4.50
2022-12-23T08:34:23.523Z,4.40
2022-12-23T08:36:50.932Z,4.60
2022-12-23T08:39:18.414Z,4.60
2022-12-23T08:41:48.084Z,4.80
2022-12-23T08:44:16.175Z,4.80
2022-12-23T08:46:44.466Z,4.90
2022-12-23T08:49:11.840Z,5.00
2022-12-23T08:51:39.381Z,5.30
2022-12-23T08:54:07.148Z,5.60
2022-12-23T08:56:38.990Z,5.60
2022-12-23T08:59:06.514Z,5.50
2022-12-23T09:01:35.290Z,5.60
2022-12-23T09:04:05.001Z,5.60
2022-12-23T09:06:38.267Z,5.60
2022-12-23T09:09:05.928Z,5.70
2022-12-23T09:11:33.657Z,6.00
2022-12-23T09:14:02.330Z,6.10
2022-12-23T09:16:30.342Z,6.20
2022-12-23T09:18:58.312Z,6.40
2022-12-23T09:21:25.684Z,6.50
2022-12-23T09:23:52.983Z,6.40
2022-12-23T09:26:22.762Z,6.60
2022-12-23T09:28:50.281Z,6.80
2022-12-23T09:31:17.685Z,6.80
2022-12-23T09:33:47.997Z,7.10
2022-12-23T09:36:15.407Z,7.20
2022-12-23T09:38:42.517Z,7.30
2022-12-23T09:41:09.590Z,7.30
2022-12-23T09:44:13.427Z,7.50
2022-12-23T09:46:49.345Z,7.70
2022-12-23T09:49:18.886Z,7.70
2022-12-23T09:51:48.897Z,7.80
2022-12-23T09:54:20.993Z,8.10
2022-12-23T09:57:26.944Z,7.90
2022-12-23T10:00:03.280Z,7.90
2022-12-23T10:02:30.514Z,7.90
2022-12-23T10:05:14.171Z,7.90
2022-12-23T10:08:12.715Z,7.90
2022-12-23T10:10:45.382Z,7.90
2022-12-23T10:13:27.895Z,7.90
2022-12-23T10:15:58.039Z,8.00
2022-12-23T10:18:27.938Z,8.20
2022-12-23T10:21:10.224Z,8.20
2022-12-23T10:23:40.216Z,8.40
2022-12-23T10:26:29.530Z,8.40
2022-12-23T10:29:29.614Z,8.30
2022-12-23T10:32:24.127Z,8.20
2022-12-23T10:35:25.227Z,8.10
2022-12-23T10:37:59.806Z,8.10
2022-12-23T10:40:33.655Z,8.20
2022-12-23T10:43:00.848Z,8.20
2022-12-23T10:45:38.492Z,8.60
2022-12-23T10:48:42.458Z,8.60
2022-12-23T10:51:24.478Z,8.50
2022-12-23T10:54:06.816Z,8.60
2022-12-23T10:56:34.216Z,8.80
2022-12-23T10:59:01.973Z,9.00
2022-12-23T11:01:31.424Z,9.00
2022-12-23T11:04:14.093Z,9.00
2022-12-23T11:06:48.470Z,9.20
2022-12-23T11:09:23.720Z,9.20
2022-12-23T11:11:58.368Z,9.20
2022-12-23T11:14:33.611Z,9.20
2022-12-23T11:17:01.155Z,9.30
2022-12-23T11:19:28.567Z,9.30
2022-12-23T11:22:01.370Z,9.30
2022-12-23T11:24:35.429Z,9.30
2022-12-23T11:27:11.768Z,9.30
2022-12-23T11:29:44.351Z,9.30
2022-12-23T11:32:19.911Z,9.40
2022-12-23T11:34:48.345Z,9.50
2022-12-23T11:37:27.742Z,9.50
2022-12-23T11:39:54.907Z,9.70
2022-12-23T11:42:28.421Z,9.80
2022-12-23T11:44:58.828Z,9.90
2022-12-23T11:47:41.557Z,10.00
2022-12-23T11:50:29.113Z,10.10
2022-12-23T11:53:04.024Z,10.40
2022-12-23T11:55:34.726Z,10.40
2022-12-23T11:58:03.164Z,10.40
2022-12-23T12:00:41.520Z,10.50
2022-12-23T12:03:19.630Z,10.40
2022-12-23T12:05:53.112Z,10.50
2022-12-23T12:08:31.522Z,10.60
2022-12-23T12:11:12.014Z,10.60
2022-12-23T12:13:42.569Z,10.70
2022-12-23T12:16:30.678Z,10.80
2022-12-23T12:19:23.324Z,10.80
2022-12-23T12:21:54.660Z,10.90
2022-12-23T12:24:44.662Z,10.90
2022-12-23T12:27:12.162Z,10.90
2022-12-23T12:30:02.045Z,10.90
2022-12-23T12:32:56.693Z,10.80
2022-12-23T12:35:58.936Z,11.00
2022-12-23T12:38:32.706Z,10.80
2022-12-23T12:41:21.354Z,10.80
2022-12-23T12:44:02.468Z,10.90
2022-12-23T12:46:43.304Z,11.00
2022-12-23T12:49:36.483Z,11.10
2022-12-23T12:52:12.929Z,11.20
2022-12-23T12:54:56.028Z,11.30
2022-12-23T12:57:25.538Z,11.40
2022-12-23T13:00:05.706Z,11.50
2022-12-23T13:02:45.973Z,11.60
2022-12-23T13:05:34.080Z,11.70
2022-12-23T13:08:45.498Z,11.60
2022-12-23T13:12:00.363Z,11.70
2022-12-23T13:14:41.184Z,11.80
2022-12-23T13:17:24.672Z,11.60
2022-12-23T13:20:10.623Z,11.60
2022-12-23T13:22:38.797Z,11.50
2022-12-23T13:25:28.032Z,11.50
2022-12-23T13:27:58.925Z,11.60
2022-12-23T13:30:39.340Z,11.70
2022-12-23T13:33:12.387Z,11.80
2022-12-23T13:35:51.700Z,11.80
2022-12-23T13:38:45.690Z,11.90
2022-12-23T13:41:41.337Z,11.90
2022-12-23T13:44:11.084Z,11.90
2022-12-23T13:47:10.590Z,11.90
2022-12-23T13:49:40.535Z,12.10
2022-12-23T13:52:20.025Z,11.90
2022-12-23T13:55:11.149Z,11.80
2022-12-23T13:58:02.766Z,11.60
2022-12-23T14:00:33.838Z,11.60
2022-12-23T14:03:00.982Z,11.40
2022-12-23T14:05:33.158Z,11.30
2022-12-23T14:08:20.752Z,11.30
2022-12-23T14:11:00.222Z,11.10
2022-12-23T14:13:50.394Z,11.00
2022-12-23T14:16:42.518Z,10.80
2022-12-23T14:19:51.003Z,10.60
2022-12-23T14:22:37.864Z,10.40
2022-12-23T14:25:38.398Z,10.20
2022-12-23T14:28:46.812Z,10.10
2022-12-23T14:31:38.738Z,9.90
2022-12-23T14:34:17.838Z,9.90
2022-12-23T14:37:23.695Z,10.00
2022-12-23T14:39:51.910Z,9.80
2022-12-23T14:42:41.908Z,9.70
2022-12-23T14:45:27.865Z,9.60
2022-12-23T14:47:55.247Z,9.40
2022-12-23T14:50:42.691Z,9.30
2022-12-23T14:53:25.473Z,9.20
2022-12-23T14:56:10.767Z,9.00
2022-12-23T14:59:00.786Z,8.90
2022-12-23T15:01:47.995Z,8.80
2022-12-23T15:04:18.134Z,8.60
2022-12-23T15:07:00.128Z,8.30
2022-12-23T15:09:30.242Z,8.00
2022-12-23T15:12:00.434Z,8.00
2022-12-23T15:14:32.788Z,7.90
2022-12-23T15:17:00.222Z,7.70
2022-12-23T15:19:28.631Z,7.50
2022-12-23T15:22:21.161Z,7.50
2022-12-23T15:24:49.696Z,7.50
2022-12-23T15:27:27.085Z,7.40
2022-12-23T15:29:55.861Z,7.20
2022-12-23T15:32:24.616Z,7.20
2022-12-23T15:34:53.078Z,7.10
2022-12-23T15:37:29.503Z,6.90
2022-12-23T15:40:06.140Z,6.90
2022-12-23T15:42:39.094Z,6.90
2022-12-23T15:45:40.576Z,6.90
2022-12-23T15:48:27.244Z,7.00
2022-12-23T15:51:02.639Z,6.90
2022-12-23T15:53:35.053Z,6.60
2022-12-23T15:56:19.638Z,6.50
2022-12-23T15:58:47.262Z,6.50
2022-12-23T16:01:16.697Z,6.50
2022-12-23T16:03:59.556Z,6.60
2022-12-23T16:06:33.069Z,6.50
2022-12-23T16:09:34.081Z,6.50
2022-12-23T16:12:38.172Z,6.50
2022-12-23T16:15:26.997Z,6.50
2022-12-23T16:18:20.508Z,6.40
2022-12-23T16:20:53.693Z,6.20
2022-12-23T16:23:22.147Z,6.00
2022-12-23T16:25:52.809Z,6.10
2022-12-23T16:28:24.324Z,6.00
2022-12-23T16:30:54.690Z,6.00
2022-12-23T16:33:38.419Z,6.30
2022-12-23T16:36:36.346Z,6.30
2022-12-23T16:39:07.423Z,6.40
2022-12-23T16:41:35.469Z,6.70
2022-12-23T16:44:03.654Z,6.80
2022-12-23T16:46:38.738Z,6.70
2022-12-23T16:49:11.165Z,6.60
2022-12-23T16:51:40.377Z,6.30
2022-12-23T16:54:20.431Z,6.20
2022-12-23T16:56:47.664Z,6.10
2022-12-23T16:59:15.434Z,6.10
2022-12-23T17:01:45.329Z,6.20
2022-12-23T17:04:13.270Z,6.10
2022-12-23T17:06:40.900Z,6.20
2022-12-23T17:09:10.432Z,6.30
2022-12-23T17:11:47.646Z,6.40
2022-12-23T17:14:22.873Z,6.40
2022-12-23T17:16:51.055Z,6.40
2022-12-23T17:19:27.406Z,6.10
2022-12-23T17:22:02.721Z,5.80
2022-12-23T17:24:30.077Z,5.70
2022-12-23T17:26:57.339Z,5.70
2022-12-23T17:29:24.598Z,5.80
2022-12-23T17:31:52.252Z,5.80
2022-12-23T17:34:22.208Z,5.80
2022-12-23T17:36:50.816Z,5.80
2022-12-23T17:39:20.418Z,5.90
2022-12-23T17:41:47.907Z,5.80
2022-12-23T17:44:17.287Z,5.90
2022-12-23T17:46:46.038Z,5.90
2022-12-23T17:49:13.817Z,5.90
2022-12-23T17:51:42.358Z,5.90
2022-12-23T17:54:24.144Z,6.00
2022-12-23T17:56:51.989Z,6.00
2022-12-23T17:59:20.492Z,6.10
2022-12-23T18:01:47.967Z,6.00
2022-12-23T18:04:15.121Z,5.90
2022-12-23T18:06:42.231Z,5.80
2022-12-23T18:09:09.409Z,5.80
2022-12-23T18:11:39.075Z,5.80
2022-12-23T18:14:12.598Z,5.70
2022-12-23T18:16:39.912Z,5.70
2022-12-23T18:19:17.957Z,5.70
2022-12-23T18:21:45.594Z,5.70
2022-12-23T18:24:13.105Z,5.60
2022-12-23T18:26:41.892Z,5.50
2022-12-23T18:29:09.080Z,5.50
2022-12-23T18:31:41.743Z,5.60
2022-12-23T18:34:17.682Z,5.80
2022-12-23T18:36:45.673Z,5.90
2022-12-23T18:39:12.890Z,5.80
2022-12-23T18:41:40.494Z,5.80
2022-12-23T18:44:16.150Z,5.80
2022-12-23T18:46:43.320Z,6.00
2022-12-23T18:49:10.516Z,6.20
2022-12-23T18:51:37.717Z,6.20
2022-12-23T18:54:04.922Z,6.00
2022-12-23T18:56:32.050Z,5.80
2022-12-23T18:58:59.237Z,5.70
2022-12-23T19:01:26.513Z,5.60
2022-12-23T19:03:53.678Z,5.60
2022-12-23T19:06:20.921Z,5.70
2022-12-23T19:08:48.116Z,5.70
2022-12-23T19:11:20.618Z,5.80
2022-12-23T19:13:48.335Z,5.70
2022-12-23T19:16:18.031Z,5.60
2022-12-23T19:18:46.865Z,5.60
2022-12-23T19:21:14.489Z,5.60
2022-12-23T19:23:43.059Z,5.70
2022-12-23T19:26:12.586Z,5.70
2022-12-23T19:28:41.834Z,5.60
2022-12-23T19:31:14.220Z,5.70
2022-12-23T19:33:43.822Z,5.70
2022-12-23T19:36:19.602Z,5.60
2022-12-23T19:38:47.680Z,5.60
2022-12-23T19:41:15.016Z,5.60
2022-12-23T19:43:44.936Z,5.70
2022-12-23T19:46:13.430Z,5.70
2022-12-23T19:48:40.798Z,5.90
2022-12-23T19:51:14.162Z,5.90
2022-12-23T19:53:42.285Z,5.70
2022-12-23T19:56:21.044Z,5.50
2022-12-23T19:58:49.402Z,5.30
2022-12-23T20:01:25.092Z,5.20
2022-12-23T20:03:55.134Z,5.40
2022-12-23T20:06:33.626Z,5.50
2022-12-23T20:09:04.291Z,5.30
2022-12-23T20:11:36.846Z,5.20
2022-12-23T20:14:05.250Z,5.10
2022-12-23T20:16:33.486Z,5.30
2022-12-23T20:19:00.721Z,5.40
2022-12-23T20:21:28.037Z,5.60
2022-12-23T20:23:55.500Z,5.50
2022-12-23T20:26:23.791Z,5.70
2022-12-23T20:28:51.414Z,5.70
2022-12-23T20:31:22.156Z,5.40
2022-12-23T20:33:50.609Z,5.70
2022-12-23T20:36:21.329Z,5.30
2022-12-23T20:38:50.356Z,5.30
2022-12-23T20:41:20.149Z,5.40
2022-12-23T20:44:02.753Z,5.40
2022-12-23T20:46:35.805Z,5.40
2022-12-23T20:49:03.078Z,5.50
2022-12-23T20:51:30.345Z,5.80
2022-12-23T20:54:01.069Z,5.80
2022-12-23T20:56:30.328Z,5.80
2022-12-23T20:58:59.261Z,6.00
2022-12-23T21:01:32.683Z,6.00
2022-12-23T21:04:02.143Z,6.30
2022-12-23T21:06:30.839Z,6.40
2022-12-23T21:08:59.850Z,6.40
2022-12-23T21:11:35.768Z,6.30
2022-12-23T21:14:06.772Z,6.10
2022-12-23T21:16:36.613Z,5.60
2022-12-23T21:19:05.383Z,5.30
2022-12-23T21:21:32.584Z,5.20
2022-12-23T21:24:01.669Z,5.20
2022-12-23T21:26:31.248Z,5.30
2022-12-23T21:29:00.912Z,5.30
2022-12-23T21:31:29.336Z,5.30
2022-12-23T21:33:57.101Z,5.30
2022-12-23T21:36:27.423Z,5.30
2022-12-23T21:38:55.066Z,5.30
2022-12-23T21:41:30.150Z,5.40
2022-12-23T21:43:58.867Z,5.30
2022-12-23T21:46:27.364Z,5.20
2022-12-23T21:48:59.273Z,5.20
2022-12-23T21:51:38.575Z,5.20
2022-12-23T21:54:07.332Z,5.20
2022-12-23T21:56:35.063Z,5.30
2022-12-23T21:59:05.527Z,5.40
2022-12-23T22:01:32.827Z,5.40
2022-12-23T22:03:59.974Z,5.60
2022-12-23T22:06:29.625Z,5.60
2022-12-23T22:08:58.070Z,5.70
2022-12-23T22:11:28.249Z,5.70
2022-12-23T22:13:56.949Z,5.90
2022-12-23T22:16:26.497Z,6.00
2022-12-23T22:18:54.698Z,6.10
2022-12-23T22:21:24.603Z,6.00
2022-12-23T22:23:53.002Z,5.90
2022-12-23T22:26:25.613Z,6.00
2022-12-23T22:28:55.190Z,5.90
2022-12-23T22:31:31.235Z,5.80
2022-12-23T22:33:58.807Z,5.70
2022-12-23T22:36:26.289Z,5.60
2022-12-23T22:38:55.958Z,5.50
2022-12-23T22:41:24.021Z,5.50
2022-12-23T22:43:51.500Z,5.80
2022-12-23T22:46:19.059Z,5.90
2022-12-23T22:48:46.739Z,5.90
2022-12-23T22:51:23.377Z,5.80
2022-12-23T22:53:50.700Z,5.70
2022-12-23T22:56:20.072Z,5.90
2022-12-23T22:58:47.711Z,5.90
2022-12-23T23:01:21.161Z,5.70
2022-12-23T23:03:51.213Z,5.50
2022-12-23T23:06:18.832Z,5.50
2022-12-23T23:08:46.002Z,5.50
2022-12-23T23:11:13.287Z,5.50
2022-12-23T23:13:40.390Z,5.70
2022-12-23T23:16:07.756Z,5.70
2022-12-23T23:18:34.972Z,5.80
2022-12-23T23:21:02.193Z,5.80
2022-12-23T23:23:29.328Z,5.60
2022-12-23T23:25:56.513Z,5.40
2022-12-23T23:28:23.840Z,5.50
2022-12-23T23:31:09.780Z,5.40
2022-12-23T23:33:38.683Z,5.30
2022-12-23T23:36:06.464Z,5.40
2022-12-23T23:38:35.243Z,5.50
2022-12-23T23:41:02.975Z,5.60
2022-12-23T23:43:30.165Z,5.70
2022-12-23T23:45:57.550Z,6.00
2022-12-23T23:48:24.761Z,5.80
2022-12-23T23:50:51.888Z,5.10
2022-12-23T23:53:19.100Z,4.80
2022-12-23T23:55:46.281Z,4.80
2022-12-23T23:58:13.476Z,4.80
